Time;durP1;ratioP1;P1;durP2;ratioP2;P2;SDS_P1;SDS_P2;PMS_P1;PMS_P2;Temp;Humidity;BMP_temperature;BMP_pressure;BME280_temperature;BME280_humidity;BME280_pressure;Samples;Min_cycle;Max_cycle;Signal;HPM_P1;HPM_P2
2022/07/05 00:02:09;;;;;;;7.80;2.80;;;;;;;;;;5036091;28;20072;-71
2022/07/05 00:04:35;;;;;;;5.95;3.25;;;;;;;;;;5019384;28;20037;-69
2022/07/05 00:07:19;;;;;;;4.60;3.05;;;;;;;;;;5053735;28;20033;-69
2022/07/05 00:09:46;;;;;;;5.80;3.15;;;;;;;;;;5053046;28;20033;-69
2022/07/05 00:12:13;;;;;;;4.03;2.70;;;;;;;;;;5053587;28;20045;-69
2022/07/05 00:14:39;;;;;;;3.53;2.90;;;;;;;;;;5053747;28;20406;-69
2022/07/05 00:17:05;;;;;;;4.82;3.10;;;;;;;;;;5058952;23;20041;-70
2022/07/05 00:19:31;;;;;;;4.75;3.08;;;;;;;;;;5035149;28;20033;-71
2022/07/05 00:21:57;;;;;;;5.10;3.20;;;;;;;;;;5036039;28;20037;-70
2022/07/05 00:24:23;;;;;;;5.05;3.28;;;;;;;;;;5053915;28;20037;-70
2022/07/05 00:26:49;;;;;;;4.45;3.28;;;;;;;;;;5019296;28;20491;-70
2022/07/05 00:29:15;;;;;;;4.53;3.60;;;;;;;;;;5035143;28;20103;-70
2022/07/05 00:31:41;;;;;;;6.75;3.88;;;;;;;;;;5035951;28;20041;-70
2022/07/05 00:34:07;;;;;;;11.10;3.97;;;;;;;;;;5019067;28;20045;-70
2022/07/05 00:36:33;;;;;;;11.70;4.18;;;;;;;;;;5035580;28;20041;-70
2022/07/05 00:39:00;;;;;;;7.60;3.30;;;;;;;;;;5035192;28;20041;-71
2022/07/05 00:41:26;;;;;;;4.40;3.60;;;;;;;;;;5035253;28;20052;-70
2022/07/05 00:43:56;;;;;;;6.45;3.92;;;;;;;;;;5053411;28;20045;-70
2022/07/05 00:46:23;;;;;;;3.17;2.88;;;;;;;;;;5035700;28;20037;-70
2022/07/05 00:48:49;;;;;;;11.07;3.45;;;;;;;;;;5051392;28;20059;-70
2022/07/05 00:51:15;;;;;;;4.05;3.65;;;;;;;;;;5034552;28;20170;-70
2022/07/05 00:53:43;;;;;;;6.32;4.43;;;;;;;;;;5035509;28;20040;-71
2022/07/05 00:56:09;;;;;;;3.78;3.25;;;;;;;;;;5035406;28;20097;-70
2022/07/05 00:58:35;;;;;;;6.22;4.05;;;;;;;;;;5035411;28;20533;-70
2022/07/05 01:01:02;;;;;;;4.30;3.75;;;;;;;;;;5034253;28;20147;-70
2022/07/05 01:03:29;;;;;;;5.05;3.47;;;;;;;;;;5035521;28;20041;-71
2022/07/05 01:05:55;;;;;;;7.28;4.25;;;;;;;;;;5034811;28;20409;-70
2022/07/05 01:08:22;;;;;;;5.82;3.42;;;;;;;;;;5034939;28;20037;-70
2022/07/05 01:10:48;;;;;;;5.10;3.92;;;;;;;;;;5052002;28;20036;-70
2022/07/05 01:13:14;;;;;;;4.47;3.90;;;;;;;;;;5052854;28;20037;-70
2022/07/05 01:15:41;;;;;;;8.00;4.70;;;;;;;;;;5052551;28;20174;-70
2022/07/05 01:18:08;;;;;;;5.97;3.30;;;;;;;;;;5034731;28;20037;-71
2022/07/05 01:20:34;;;;;;;4.05;3.53;;;;;;;;;;5034089;28;20053;-70
2022/07/05 01:23:02;;;;;;;6.40;3.65;;;;;;;;;;5034628;28;20411;-70
2022/07/05 01:25:28;;;;;;;8.27;4.28;;;;;;;;;;5034664;28;20048;-71
2022/07/05 01:27:55;;;;;;;5.00;3.75;;;;;;;;;;5018431;28;20040;-70
2022/07/05 01:30:21;;;;;;;6.88;3.88;;;;;;;;;;5033762;28;20458;-70
2022/07/05 01:32:47;;;;;;;5.00;3.80;;;;;;;;;;5052867;28;20044;-70
2022/07/05 01:35:13;;;;;;;3.97;3.22;;;;;;;;;;5034476;28;20179;-71
2022/07/05 01:37:40;;;;;;;5.18;3.83;;;;;;;;;;5052741;28;20040;-70
2022/07/05 01:40:06;;;;;;;4.78;3.60;;;;;;;;;;5051841;28;20048;-69
2022/07/05 01:42:33;;;;;;;5.78;3.80;;;;;;;;;;5052447;28;20041;-71
2022/07/05 01:44:59;;;;;;;7.32;4.32;;;;;;;;;;5052476;28;20125;-71
2022/07/05 01:47:25;;;;;;;4.25;3.47;;;;;;;;;;5050442;28;20068;-70
2022/07/05 01:49:54;;;;;;;4.28;3.85;;;;;;;;;;5017216;28;20119;-70
2022/07/05 01:52:21;;;;;;;6.25;3.83;;;;;;;;;;5034404;28;20091;-70
2022/07/05 01:54:47;;;;;;;5.93;4.28;;;;;;;;;;5034464;28;20075;-72
2022/07/05 01:57:14;;;;;;;5.20;3.80;;;;;;;;;;5051966;28;20041;-72
2022/07/05 01:59:40;;;;;;;6.10;4.15;;;;;;;;;;5033614;28;20044;-70
2022/07/05 02:02:07;;;;;;;6.03;4.07;;;;;;;;;;5034156;28;20498;-70
2022/07/05 02:04:36;;;;;;;6.63;4.15;;;;;;;;;;5051856;28;20517;-70
2022/07/05 02:07:06;;;;;;;5.40;3.85;;;;;;;;;;5051822;28;20041;-70
2022/07/05 02:09:32;;;;;;;5.65;4.63;;;;;;;;;;5016934;28;20101;-70
2022/07/05 02:11:58;;;;;;;6.82;4.43;;;;;;;;;;5051793;28;20090;-71
2022/07/05 02:14:24;;;;;;;8.48;4.00;;;;;;;;;;5034284;28;20052;-72
2022/07/05 02:16:50;;;;;;;4.97;4.38;;;;;;;;;;5033760;28;20040;-70
2022/07/05 02:19:16;;;;;;;8.43;4.30;;;;;;;;;;5033065;28;20515;-70
2022/07/05 02:21:42;;;;;;;8.75;4.47;;;;;;;;;;5033432;28;20195;-71
2022/07/05 02:24:08;;;;;;;5.30;3.75;;;;;;;;;;5016997;28;20040;-70
2022/07/05 02:26:34;;;;;;;8.73;4.25;;;;;;;;;;5033841;28;20499;-70
2022/07/05 02:29:00;;;;;;;5.38;4.25;;;;;;;;;;5033178;28;20099;-69
2022/07/05 02:31:26;;;;;;;8.43;4.55;;;;;;;;;;5033461;28;20043;-70
2022/07/05 02:33:52;;;;;;;6.68;5.05;;;;;;;;;;5051644;28;20045;-70
2022/07/05 02:36:18;;;;;;;6.07;4.63;;;;;;;;;;5051541;28;20120;-70
2022/07/05 02:38:44;;;;;;;7.03;4.43;;;;;;;;;;5033713;28;20398;-70
2022/07/05 02:41:11;;;;;;;5.25;4.40;;;;;;;;;;5032776;28;20458;-70
2022/07/05 02:43:38;;;;;;;7.05;4.50;;;;;;;;;;5033967;28;20437;-70
2022/07/05 02:46:04;;;;;;;6.38;4.68;;;;;;;;;;5033434;28;20204;-70
2022/07/05 02:48:30;;;;;;;6.18;4.35;;;;;;;;;;5049802;28;20044;-71
2022/07/05 02:50:56;;;;;;;4.60;4.03;;;;;;;;;;5032873;28;20499;-70
2022/07/05 02:53:22;;;;;;;4.30;3.90;;;;;;;;;;5033482;28;20106;-71
2022/07/05 02:55:48;;;;;;;5.05;4.35;;;;;;;;;;5051413;28;20077;-71
2022/07/05 02:58:16;;;;;;;6.22;4.57;;;;;;;;;;5017057;28;20080;-70
2022/07/05 03:00:42;;;;;;;7.28;4.53;;;;;;;;;;5032502;28;20098;-71
2022/07/05 03:03:08;;;;;;;6.57;4.50;;;;;;;;;;5033311;28;20075;-70
2022/07/05 03:05:34;;;;;;;5.28;4.22;;;;;;;;;;5051096;28;20079;-70
2022/07/05 03:08:00;;;;;;;6.57;4.43;;;;;;;;;;5051640;28;20040;-70
2022/07/05 03:10:26;;;;;;;6.13;4.53;;;;;;;;;;5032984;28;20126;-70
2022/07/05 03:12:52;;;;;;;5.07;4.28;;;;;;;;;;5033481;28;20048;-71
2022/07/05 03:15:18;;;;;;;8.98;4.80;;;;;;;;;;5051133;28;20041;-70
2022/07/05 03:17:44;;;;;;;5.22;4.00;;;;;;;;;;5051292;28;20036;-70
2022/07/05 03:20:11;;;;;;;5.45;4.10;;;;;;;;;;5032957;28;20055;-70
2022/07/05 03:22:37;;;;;;;5.35;4.50;;;;;;;;;;5033300;28;20487;-70
2022/07/05 03:25:03;;;;;;;6.55;4.30;;;;;;;;;;5016927;28;20048;-70
2022/07/05 03:27:29;;;;;;;7.00;4.55;;;;;;;;;;5033442;28;20041;-70
2022/07/05 03:29:55;;;;;;;4.93;4.10;;;;;;;;;;5032766;28;20175;-70
2022/07/05 03:32:21;;;;;;;5.63;3.92;;;;;;;;;;5051108;28;20550;-70
2022/07/05 03:34:47;;;;;;;7.75;4.70;;;;;;;;;;5035705;28;20048;-72
2022/07/05 03:37:13;;;;;;;6.10;4.40;;;;;;;;;;5020190;28;20044;-72
2022/07/05 03:39:39;;;;;;;5.78;4.47;;;;;;;;;;5053975;28;20094;-71
2022/07/05 03:42:05;;;;;;;6.25;4.88;;;;;;;;;;5036822;28;20041;-72
2022/07/05 03:44:32;;;;;;;8.02;4.53;;;;;;;;;;5055265;28;20445;-70
2022/07/05 03:46:59;;;;;;;5.72;4.82;;;;;;;;;;5041759;28;20093;-69
2022/07/05 03:49:25;;;;;;;6.82;4.68;;;;;;;;;;5056203;28;20072;-70
2022/07/05 03:51:51;;;;;;;5.85;5.10;;;;;;;;;;5038457;28;20045;-71
2022/07/05 03:54:17;;;;;;;7.28;4.43;;;;;;;;;;5051561;28;20044;-69
2022/07/05 03:56:43;;;;;;;4.50;4.07;;;;;;;;;;5025209;28;20045;-70
2022/07/05 03:59:09;;;;;;;6.28;3.95;;;;;;;;;;5067843;28;20037;-70
2022/07/05 04:01:35;;;;;;;5.70;4.65;;;;;;;;;;5052412;28;20070;-71
2022/07/05 04:04:01;;;;;;;7.80;5.18;;;;;;;;;;5052812;28;20552;-71
2022/07/05 04:06:27;;;;;;;4.97;4.00;;;;;;;;;;5042472;28;20041;-70
2022/07/05 04:08:53;;;;;;;7.60;4.40;;;;;;;;;;5054169;28;20486;-70
2022/07/05 04:11:19;;;;;;;5.88;3.90;;;;;;;;;;5035997;28;20048;-70
2022/07/05 04:13:45;;;;;;;5.40;4.22;;;;;;;;;;5054057;28;20044;-70
2022/07/05 04:16:11;;;;;;;12.73;4.20;;;;;;;;;;5036215;28;20098;-71
2022/07/05 04:18:37;;;;;;;4.40;4.00;;;;;;;;;;5053999;28;20487;-70
2022/07/05 04:21:03;;;;;;;6.28;4.57;;;;;;;;;;5035290;28;20131;-72
2022/07/05 04:23:29;;;;;;;8.05;4.03;;;;;;;;;;5035999;28;20041;-71
2022/07/05 04:25:55;;;;;;;4.70;3.88;;;;;;;;;;5036294;28;20037;-72
2022/07/05 04:28:22;;;;;;;5.45;4.28;;;;;;;;;;5053713;28;20036;-71
2022/07/05 04:30:48;;;;;;;5.40;4.70;;;;;;;;;;5035394;28;20041;-70
2022/07/05 04:33:14;;;;;;;6.93;4.38;;;;;;;;;;5035826;28;20036;-70
2022/07/05 04:35:40;;;;;;;6.07;4.25;;;;;;;;;;5053695;28;20072;-71
2022/07/05 04:38:06;;;;;;;6.18;4.20;;;;;;;;;;5035711;28;20082;-71
2022/07/05 04:40:32;;;;;;;10.48;4.45;;;;;;;;;;5052779;28;20592;-70
2022/07/05 04:42:58;;;;;;;7.32;4.30;;;;;;;;;;5035515;28;20244;-70
2022/07/05 04:45:24;;;;;;;12.48;4.25;;;;;;;;;;5018355;28;20407;-70
2022/07/05 04:47:50;;;;;;;4.55;3.65;;;;;;;;;;5034744;28;20076;-70
2022/07/05 04:50:16;;;;;;;4.18;3.70;;;;;;;;;;5034867;28;20045;-70
2022/07/05 04:52:42;;;;;;;6.93;4.13;;;;;;;;;;5053039;28;20521;-69
2022/07/05 04:55:08;;;;;;;5.30;3.58;;;;;;;;;;5035782;28;20040;-70
2022/07/05 04:57:38;;;;;;;5.18;3.28;;;;;;;;;;5035117;28;20103;-70
2022/07/05 05:00:04;;;;;;;4.40;2.72;;;;;;;;;;5034599;28;20040;-70
2022/07/05 05:02:30;;;;;;;6.20;4.00;;;;;;;;;;5034996;28;20132;-70
2022/07/05 05:04:56;;;;;;;8.35;2.92;;;;;;;;;;5035350;28;20079;-70
2022/07/05 05:07:22;;;;;;;4.40;2.80;;;;;;;;;;5035084;28;20036;-70
2022/07/05 05:09:48;;;;;;;3.33;2.30;;;;;;;;;;5017851;28;20037;-71
2022/07/05 05:12:14;;;;;;;6.32;3.08;;;;;;;;;;5035229;28;20139;-71
2022/07/05 05:14:40;;;;;;;5.95;3.17;;;;;;;;;;5034980;28;20094;-72
2022/07/05 05:17:06;;;;;;;2.97;2.40;;;;;;;;;;5052754;28;20545;-70
2022/07/05 05:19:32;;;;;;;2.60;2.40;;;;;;;;;;5052170;28;20040;-70
2022/07/05 05:21:58;;;;;;;4.95;2.05;;;;;;;;;;5052661;28;20468;-70
2022/07/05 05:24:24;;;;;;;7.97;2.90;;;;;;;;;;5034714;28;20047;-70
2022/07/05 05:26:50;;;;;;;5.50;2.33;;;;;;;;;;5052688;28;20033;-70
2022/07/05 05:29:17;;;;;;;5.28;2.65;;;;;;;;;;5033847;28;20051;-71
2022/07/05 05:31:42;;;;;;;4.25;2.17;;;;;;;;;;5034683;28;20049;-71
2022/07/05 05:34:09;;;;;;;7.38;2.30;;;;;;;;;;5052456;28;20120;-70
2022/07/05 05:36:35;;;;;;;3.90;2.00;;;;;;;;;;5034412;28;20040;-70
2022/07/05 05:39:01;;;;;;;6.80;2.22;;;;;;;;;;5034126;28;20109;-70
2022/07/05 05:41:27;;;;;;;4.82;1.73;;;;;;;;;;5051918;28;20055;-70
2022/07/05 05:43:53;;;;;;;5.13;1.70;;;;;;;;;;5052376;28;20410;-70
2022/07/05 05:46:19;;;;;;;5.75;1.92;;;;;;;;;;5034530;28;20048;-70
2022/07/05 05:48:45;;;;;;;3.10;1.98;;;;;;;;;;5051244;28;20047;-71
2022/07/05 05:51:11;;;;;;;4.85;1.50;;;;;;;;;;5033732;28;20041;-70
2022/07/05 05:53:37;;;;;;;2.58;1.58;;;;;;;;;;5034534;28;20037;-70
2022/07/05 05:56:03;;;;;;;2.80;1.60;;;;;;;;;;5034447;28;20106;-71
2022/07/05 05:58:29;;;;;;;4.03;1.50;;;;;;;;;;5033591;28;20041;-70
2022/07/05 06:00:55;;;;;;;2.78;1.42;;;;;;;;;;5016852;28;20514;-71
2022/07/05 06:03:25;;;;;;;6.88;1.63;;;;;;;;;;5034180;28;20120;-71
2022/07/05 06:05:51;;;;;;;5.00;1.95;;;;;;;;;;5033946;28;20120;-73
2022/07/05 06:08:17;;;;;;;4.78;1.70;;;;;;;;;;5034270;28;20387;-72
2022/07/05 06:10:43;;;;;;;3.47;1.50;;;;;;;;;;5033116;28;20036;-71
2022/07/05 06:13:10;;;;;;;4.25;1.10;;;;;;;;;;5033908;28;20049;-70
2022/07/05 06:18:03;;;;;;;3.58;1.10;;;;;;;;;;5087119;22;20057;-69
2022/07/05 06:20:30;;;;;;;2.72;1.10;;;;;;;;;;5069723;28;20477;-69
2022/07/05 06:22:56;;;;;;;5.80;1.10;;;;;;;;;;5070003;28;20045;-69
2022/07/05 06:25:22;;;;;;;4.85;1.65;;;;;;;;;;5071324;28;20107;-69
2022/07/05 06:27:49;;;;;;;5.85;1.17;;;;;;;;;;5071325;28;20538;-70
2022/07/05 06:30:19;;;;;;;4.05;1.30;;;;;;;;;;5070502;28;20047;-69
2022/07/05 06:32:46;;;;;;;4.15;0.73;;;;;;;;;;5070117;28;20174;-69
2022/07/05 06:35:12;;;;;;;5.53;1.30;;;;;;;;;;5070076;28;20053;-70
2022/07/05 06:37:42;;;;;;;3.90;1.10;;;;;;;;;;5070011;28;20036;-69
2022/07/05 06:40:09;;;;;;;4.35;1.30;;;;;;;;;;5069668;28;20048;-70
2022/07/05 06:42:35;;;;;;;6.57;0.85;;;;;;;;;;5070050;28;20041;-70
2022/07/05 06:45:01;;;;;;;2.78;1.08;;;;;;;;;;5069856;28;20048;-70
2022/07/05 06:47:27;;;;;;;9.43;0.82;;;;;;;;;;5068896;28;20044;-70
2022/07/05 06:49:52;;;;;;;5.13;0.95;;;;;;;;;;5070583;28;20037;-70
2022/07/05 06:52:18;;;;;;;4.30;0.98;;;;;;;;;;5071253;28;20478;-69
2022/07/05 06:54:44;;;;;;;6.97;1.85;;;;;;;;;;5070010;28;20132;-70
2022/07/05 06:57:10;;;;;;;4.18;1.10;;;;;;;;;;5071046;28;20047;-70
2022/07/05 06:59:36;;;;;;;4.60;1.75;;;;;;;;;;5069219;28;20053;-70
2022/07/05 07:02:03;;;;;;;4.22;0.90;;;;;;;;;;5069685;28;20098;-70
2022/07/05 07:04:29;;;;;;;10.55;1.13;;;;;;;;;;5070203;28;20127;-70
2022/07/05 07:06:55;;;;;;;10.73;1.95;;;;;;;;;;5070978;28;20462;-70
2022/07/05 07:09:22;;;;;;;5.65;1.00;;;;;;;;;;5071410;28;20075;-70
2022/07/05 07:11:48;;;;;;;3.85;0.75;;;;;;;;;;5073742;28;20490;-69
2022/07/05 07:14:15;;;;;;;4.40;0.90;;;;;;;;;;5057014;28;20048;-70
2022/07/05 07:16:42;;;;;;;5.75;1.10;;;;;;;;;;5073278;28;20051;-70
2022/07/05 07:19:08;;;;;;;2.13;0.77;;;;;;;;;;5074590;28;20074;-68
2022/07/05 07:21:34;;;;;;;4.55;0.75;;;;;;;;;;5073440;28;20418;-70
2022/07/05 07:24:00;;;;;;;4.68;0.93;;;;;;;;;;5073266;28;20048;-70
2022/07/05 07:26:26;;;;;;;4.70;0.95;;;;;;;;;;5056548;28;20032;-70
2022/07/05 07:28:52;;;;;;;8.73;1.20;;;;;;;;;;5073017;28;20068;-68
2022/07/05 07:31:18;;;;;;;3.95;1.10;;;;;;;;;;5073172;28;20044;-70
2022/07/05 07:33:44;;;;;;;3.55;0.80;;;;;;;;;;5073197;28;20460;-70
2022/07/05 07:36:10;;;;;;;3.72;0.90;;;;;;;;;;5073026;28;20045;-70
2022/07/05 07:38:36;;;;;;;2.50;0.70;;;;;;;;;;5074332;28;20089;-70
2022/07/05 07:41:02;;;;;;;1.77;0.60;;;;;;;;;;5073930;28;20414;-71
2022/07/05 07:43:28;;;;;;;4.22;1.10;;;;;;;;;;5074142;28;20032;-72
2022/07/05 07:45:54;;;;;;;1.17;0.65;;;;;;;;;;5073215;28;20400;-69
2022/07/05 07:48:20;;;;;;;3.65;0.80;;;;;;;;;;5075528;28;20067;-70
2022/07/05 07:50:46;;;;;;;5.38;0.82;;;;;;;;;;5073059;28;20359;-68
2022/07/05 07:53:12;;;;;;;4.60;1.00;;;;;;;;;;5056062;28;20055;-70
2022/07/05 07:55:38;;;;;;;4.05;0.93;;;;;;;;;;5074193;28;20087;-69
2022/07/05 07:58:05;;;;;;;3.00;1.02;;;;;;;;;;5074148;28;20046;-70
2022/07/05 08:00:31;;;;;;;1.65;0.63;;;;;;;;;;5072645;28;20061;-70
2022/07/05 08:02:58;;;;;;;5.80;1.63;;;;;;;;;;5073984;28;20085;-69
2022/07/05 08:05:24;;;;;;;2.75;0.80;;;;;;;;;;5072681;28;20044;-69
2022/07/05 08:07:51;;;;;;;3.08;0.82;;;;;;;;;;5072568;28;20145;-70
2022/07/05 08:10:17;;;;;;;1.75;0.75;;;;;;;;;;5073774;28;20052;-69
2022/07/05 08:12:43;;;;;;;3.95;0.85;;;;;;;;;;5072477;28;20414;-70
2022/07/05 08:15:09;;;;;;;2.83;0.88;;;;;;;;;;5055685;28;20040;-69
2022/07/05 08:17:35;;;;;;;8.32;1.25;;;;;;;;;;5073593;28;20040;-70
2022/07/05 08:22:46;;;;;;;4.13;0.82;;;;;;;;;;5073815;28;20103;-68
2022/07/05 08:25:14;;;;;;;3.65;0.90;;;;;;;;;;5073837;28;20559;-69
2022/07/05 08:27:40;;;;;;;2.00;0.70;;;;;;;;;;5055465;28;20055;-70
2022/07/05 08:30:06;;;;;;;8.02;1.00;;;;;;;;;;5073193;28;20037;-69
2022/07/05 08:32:32;;;;;;;3.95;0.85;;;;;;;;;;5072138;28;20128;-69
2022/07/05 08:34:58;;;;;;;4.57;1.13;;;;;;;;;;5072029;28;20093;-69
2022/07/05 08:37:24;;;;;;;5.78;1.08;;;;;;;;;;5071886;28;20387;-69
2022/07/05 08:39:50;;;;;;;3.75;0.77;;;;;;;;;;5071605;28;20055;-70
2022/07/05 08:42:17;;;;;;;4.20;0.85;;;;;;;;;;5073112;28;20036;-70
2022/07/05 08:44:44;;;;;;;2.45;0.77;;;;;;;;;;5071957;28;20120;-70
2022/07/05 08:47:11;;;;;;;3.92;0.95;;;;;;;;;;5071365;28;20517;-70
2022/07/05 08:49:38;;;;;;;6.53;1.08;;;;;;;;;;5071712;28;20078;-70
2022/07/05 08:52:05;;;;;;;4.97;1.02;;;;;;;;;;5073051;28;20499;-71
2022/07/05 08:54:31;;;;;;;2.95;1.08;;;;;;;;;;5071704;28;20112;-69
2022/07/05 08:56:58;;;;;;;4.40;0.88;;;;;;;;;;5072867;28;20454;-70
2022/07/05 08:59:23;;;;;;;3.67;0.80;;;;;;;;;;5072549;28;20040;-70
2022/07/05 09:01:50;;;;;;;3.05;0.55;;;;;;;;;;5073029;28;20383;-71
2022/07/05 09:04:17;;;;;;;3.95;0.80;;;;;;;;;;5072779;28;20036;-70
2022/07/05 09:06:46;;;;;;;2.67;1.10;;;;;;;;;;5071528;28;20043;-69
2022/07/05 09:09:12;;;;;;;3.75;0.90;;;;;;;;;;5072391;28;20060;-70
2022/07/05 09:11:40;;;;;;;2.42;0.98;;;;;;;;;;5071488;28;20044;-69
2022/07/05 09:14:06;;;;;;;2.95;1.05;;;;;;;;;;5071371;28;20173;-69
2022/07/05 09:16:32;;;;;;;3.72;0.90;;;;;;;;;;5071000;28;20040;-69
2022/07/05 09:19:05;;;;;;;7.18;1.58;;;;;;;;;;5070963;28;20051;-70
2022/07/05 09:21:31;;;;;;;7.80;2.78;;;;;;;;;;5071111;28;20520;-70
2022/07/05 09:23:58;;;;;;;3.13;1.10;;;;;;;;;;5071119;28;20071;-71
2022/07/05 09:26:41;;;;;;;2.97;0.95;;;;;;;;;;5070884;28;20040;-69
2022/07/05 09:29:11;;;;;;;5.13;1.08;;;;;;;;;;5054110;28;20040;-68
2022/07/05 09:31:39;;;;;;;6.28;1.10;;;;;;;;;;5071118;28;20040;-70
2022/07/05 09:34:06;;;;;;;5.78;1.17;;;;;;;;;;5070890;28;20072;-70
2022/07/05 09:36:47;;;;;;;3.85;1.15;;;;;;;;;;5070839;28;20048;-70
2022/07/05 09:39:13;;;;;;;6.28;1.10;;;;;;;;;;5070647;28;20072;-69
2022/07/05 09:41:39;;;;;;;1.10;0.80;;;;;;;;;;5072225;28;20076;-69
2022/07/05 09:44:05;;;;;;;4.60;1.17;;;;;;;;;;5072104;28;20058;-70
2022/07/05 09:46:31;;;;;;;2.60;0.88;;;;;;;;;;5070751;28;20036;-69
2022/07/05 09:48:57;;;;;;;3.50;0.90;;;;;;;;;;5070033;28;20083;-70
2022/07/05 09:51:24;;;;;;;3.85;1.20;;;;;;;;;;5071610;28;20048;-70
2022/07/05 09:53:50;;;;;;;3.50;0.95;;;;;;;;;;5071983;28;20055;-70
2022/07/05 09:56:20;;;;;;;5.18;0.82;;;;;;;;;;5070413;28;20040;-69
2022/07/05 09:58:46;;;;;;;3.85;0.95;;;;;;;;;;5071802;28;20071;-70
2022/07/05 10:01:29;;;;;;;3.40;0.88;;;20.60;99.90;;;;;;5053877;28;20044;-70
2022/07/05 10:04:01;;;;;;;4.85;1.10;;;20.60;98.60;;;;;;5073415;28;20414;-70
2022/07/05 10:06:28;;;;;;;6.13;1.70;;;20.50;98.10;;;;;;5070745;28;20132;-70
2022/07/05 10:08:54;;;;;;;3.65;0.80;;;20.30;98.90;;;;;;5070313;28;20049;-70
2022/07/05 10:11:21;;;;;;;2.42;0.73;;;20.60;99.20;;;;;;5070393;28;20377;-70
2022/07/05 10:13:49;;;;;;;9.32;1.40;;;19.50;99.30;;;;;;5071591;28;20068;-70
2022/07/05 10:16:19;;;;;;;2.97;1.05;;;19.80;99.50;;;;;;5070063;28;20044;-70
2022/07/05 10:18:46;;;;;;;3.90;1.27;;;19.60;99.90;;;;;;5071693;28;20048;-70
2022/07/05 10:21:14;;;;;;;3.03;0.70;;;20.00;99.90;;;;;;5071270;28;20055;-70
2022/07/05 10:23:51;;;;;;;3.78;0.68;;;19.40;99.70;;;;;;5071572;28;20032;-70
2022/07/05 10:26:16;;;;;;;5.28;0.80;;;19.60;99.40;;;;;;5053374;28;20040;-72
2022/07/05 10:28:49;;;;;;;5.78;1.30;;;19.60;99.80;;;;;;5053284;28;20039;-70
2022/07/05 10:31:16;;;;;;;4.88;1.02;;;19.50;99.40;;;;;;5071392;28;20101;-70
2022/07/05 10:33:42;;;;;;;4.72;0.80;;;19.90;99.50;;;;;;5070047;28;20123;-69
2022/07/05 10:36:10;;;;;;;2.78;1.00;;;21.60;99.50;;;;;;5070110;28;20076;-70
2022/07/05 10:38:38;;;;;;;3.72;0.93;;;20.30;98.90;;;;;;5070195;28;20483;-70
2022/07/05 10:41:07;;;;;;;5.00;0.90;;;22.00;99.10;;;;;;5053334;28;20077;-71
2022/07/05 10:43:33;;;;;;;4.18;0.98;;;20.80;98.90;;;;;;5070742;28;20043;-71
2022/07/05 10:45:59;;;;;;;4.80;0.90;;;20.60;99.10;;;;;;5074008;28;20036;-70
2022/07/05 10:48:27;;;;;;;4.97;1.10;;;21.90;99.80;;;;;;5073745;28;20119;-71
2022/07/05 10:50:56;;;;;;;14.52;1.20;;;20.50;98.90;;;;;;5057011;28;20037;-71
2022/07/05 10:53:26;;;;;;;2.65;0.57;;;20.20;99.00;;;;;;5075266;28;20079;-71
2022/07/05 10:55:57;;;;;;;4.22;0.60;;;20.20;99.60;;;;;;5073989;28;20559;-70
2022/07/05 10:58:28;;;;;;;2.00;0.75;;;21.40;99.10;;;;;;5075247;28;20040;-71
2022/07/05 11:01:23;;;;;;;2.20;0.68;;;19.90;99.00;;;;;;5073520;28;20162;-70
2022/07/05 11:04:00;;;;;;;2.65;0.60;;;21.90;99.70;;;;;;5056289;28;20052;-70
2022/07/05 11:06:30;;;;;;;4.32;1.02;;;22.30;98.70;;;;;;5075069;28;20036;-70
2022/07/05 11:08:59;;;;;;;4.03;0.65;;;21.50;98.60;;;;;;5073442;28;20036;-71
2022/07/05 11:11:35;;;;;;;1.50;0.70;;;21.10;98.00;;;;;;5057005;28;20124;-70
2022/07/05 11:14:22;;;;;;;2.97;0.50;;;21.60;98.50;;;;;;5073843;28;20438;-70
2022/07/05 11:17:08;;;;;;;3.13;0.70;;;20.70;98.30;;;;;;5074445;28;20040;-71
2022/07/05 11:19:34;;;;;;;3.28;0.93;;;20.90;98.40;;;;;;5073204;28;20402;-71
2022/07/05 11:22:03;;;;;;;2.17;0.55;;;21.40;98.20;;;;;;5073428;28;20045;-71
2022/07/05 11:24:34;;;;;;;1.58;0.70;;;21.30;97.90;;;;;;5074748;28;20115;-70
2022/07/05 11:27:01;;;;;;;3.85;1.02;;;20.90;97.40;;;;;;5073629;28;20044;-70
2022/07/05 11:29:50;;;;;;;6.70;1.00;;;20.40;98.60;;;;;;5074748;28;20116;-70
2022/07/05 11:32:34;;;;;;;4.53;0.80;;;19.90;99.90;;;;;;5056619;28;20040;-69
2022/07/05 11:35:17;;;;;;;3.10;0.90;;;19.50;99.90;;;;;;5073064;28;20541;-70
2022/07/05 11:38:00;;;;;;;2.17;1.02;;;19.40;99.90;;;;;;5074528;28;20044;-69
2022/07/05 11:40:28;;;;;;;7.05;1.77;;;19.20;99.90;;;;;;5056612;28;20040;-69
2022/07/05 11:42:53;;;;;;;6.35;1.25;;;20.10;99.90;;;;;;5072926;28;20103;-70
2022/07/05 11:45:19;;;;;;;4.97;1.10;;;19.30;99.90;;;;;;5074203;28;20270;-70
2022/07/05 11:47:44;;;;;;;4.22;1.13;;;19.20;99.90;;;;;;5055895;28;20032;-69
2022/07/05 11:50:11;;;;;;;5.13;1.00;;;20.70;99.90;;;;;;5074084;28;20039;-69
2022/07/05 11:52:38;;;;;;;2.08;0.75;;;20.50;99.90;;;;;;5074271;28;20083;-70
2022/07/05 11:55:06;;;;;;;3.05;0.60;;;21.30;99.90;;;;;;5072908;28;20036;-70
2022/07/05 11:57:32;;;;;;;2.50;0.77;;;19.70;99.50;;;;;;5072821;28;20119;-70
2022/07/05 11:59:58;;;;;;;5.32;1.35;;;20.90;99.90;;;;;;5072463;28;20105;-70
2022/07/05 12:02:24;;;;;;;5.57;0.90;;;20.00;99.80;;;;;;5072764;28;20410;-70
2022/07/05 12:04:52;;;;;;;5.28;1.20;;;19.80;99.40;;;;;;5072879;28;20396;-69
2022/07/05 12:07:31;;;;;;;4.57;0.80;;;20.00;99.90;;;;;;5072833;28;20039;-69
2022/07/05 12:12:43;;;;;;;2.63;1.05;;;21.50;99.70;;;;;;5073950;28;20045;-70
2022/07/05 12:15:10;;;;;;;4.40;1.05;;;20.80;99.10;;;;;;5056845;28;20036;-69
2022/07/05 12:17:37;;;;;;;2.90;0.93;;;19.70;98.60;;;;;;5085244;22;20048;-71
2022/07/05 12:20:04;;;;;;;1.73;0.80;;;19.80;98.80;;;;;;5035509;28;20063;-71
2022/07/05 12:22:31;;;;;;;4.50;1.00;;;20.00;99.00;;;;;;5053705;28;20048;-71
2022/07/05 12:24:58;;;;;;;2.55;0.80;;;20.20;99.20;;;;;;5035904;28;20037;-71
2022/07/05 12:27:28;;;;;;;2.50;1.38;;;20.30;98.50;;;;;;5035840;28;20044;-71
2022/07/05 12:29:55;;;;;;;6.28;1.40;;;20.10;98.30;;;;;;5035538;28;20045;-71
2022/07/05 12:32:21;;;;;;;4.68;1.27;;;20.20;99.00;;;;;;5053638;28;20037;-71
2022/07/05 12:34:46;;;;;;;3.33;0.90;;;20.10;98.30;;;;;;5035944;28;20048;-71
2022/07/05 12:37:20;;;;;;;3.05;1.05;;;19.80;98.30;;;;;;5035707;28;20079;-71
2022/07/05 12:39:47;;;;;;;2.70;1.20;;;22.00;98.70;;;;;;5035594;28;20063;-72
2022/07/05 12:42:33;;;;;;;3.13;0.93;;;20.30;98.50;;;;;;5035482;28;20048;-71
2022/07/05 12:45:09;;;;;;;2.50;1.00;;;20.10;97.90;;;;;;5035686;28;20156;-71
2022/07/05 12:47:49;;;;;;;1.42;0.95;;;20.60;98.70;;;;;;5035183;28;20033;-71
2022/07/05 12:50:14;;;;;;;3.60;1.25;;;21.90;98.00;;;;;;5035394;28;20048;-73
2022/07/05 12:58:56;;;;;;;3.60;1.35;;;20.20;97.70;;;;;;5035357;28;20636;-71
2022/07/05 13:01:36;;;;;;;3.17;0.82;;;20.20;98.50;;;;;;5034944;28;20136;-71
2022/07/05 13:04:08;;;;;;;5.72;1.48;;;20.20;97.40;;;;;;5035196;28;20558;-71
2022/07/05 13:06:54;;;;;;;5.07;0.90;;;20.30;97.80;;;;;;5034812;28;20075;-71
2022/07/05 13:09:31;;;;;;;2.10;1.00;;;20.40;98.30;;;;;;5035251;28;20047;-71
2022/07/05 13:12:13;;;;;;;4.05;0.75;;;20.40;98.30;;;;;;5035180;28;20045;-71
2022/07/05 13:14:41;;;;;;;4.00;0.88;;;20.50;98.00;;;;;;5018475;28;20045;-72
2022/07/05 13:17:08;;;;;;;3.53;0.77;;;20.40;98.00;;;;;;5034696;28;20068;-71
2022/07/05 13:19:35;;;;;;;4.22;1.10;;;22.30;98.80;;;;;;5034745;28;20084;-71
2022/07/05 13:22:01;;;;;;;1.35;0.85;;;20.70;98.40;;;;;;5034676;28;20503;-71
2022/07/05 13:24:26;;;;;;;2.40;0.90;;;22.90;99.00;;;;;;5052613;28;20039;-72
2022/07/05 13:26:52;;;;;;;2.90;0.95;;;21.30;98.60;;;;;;5034671;28;20041;-71
2022/07/05 13:29:18;;;;;;;6.25;0.90;;;21.00;97.50;;;;;;5052469;28;20060;-71
2022/07/05 13:31:44;;;;;;;1.65;0.50;;;22.20;97.80;;;;;;5034602;28;20127;-71
2022/07/05 13:34:09;;;;;;;4.78;1.33;;;22.20;98.00;;;;;;5052575;28;20490;-71
2022/07/05 13:36:35;;;;;;;2.85;1.00;;;21.60;98.30;;;;;;5034456;28;20040;-71
2022/07/05 13:39:00;;;;;;;2.55;0.80;;;20.30;98.10;;;;;;5018114;28;20096;-71
2022/07/05 13:41:26;;;;;;;4.60;1.90;;;20.00;97.90;;;;;;5017841;28;20052;-71
2022/07/05 13:43:52;;;;;;;1.65;0.80;;;20.20;98.30;;;;;;5034468;28;20045;-71
2022/07/05 13:46:17;;;;;;;4.32;0.90;;;20.50;98.00;;;;;;5034263;28;20052;-71
2022/07/05 13:48:43;;;;;;;2.42;0.95;;;19.90;98.10;;;;;;5051801;28;20033;-71
2022/07/05 13:51:09;;;;;;;7.63;1.13;;;19.70;98.40;;;;;;5034020;28;20167;-71
2022/07/05 13:53:36;;;;;;;4.20;1.05;;;21.00;98.70;;;;;;5034191;28;20052;-71
2022/07/05 13:56:03;;;;;;;1.77;0.90;;;19.90;98.10;;;;;;5034107;28;20040;-71
2022/07/05 13:58:29;;;;;;;3.60;1.00;;;19.80;98.60;;;;;;5034365;28;20040;-71
2022/07/05 14:00:54;;;;;;;2.20;0.90;;;20.00;98.80;;;;;;5033820;28;20124;-71
2022/07/05 14:03:20;;;;;;;2.38;0.80;;;20.40;98.50;;;;;;5034116;28;20033;-71
2022/07/05 14:05:45;;;;;;;2.05;0.85;;;21.80;98.70;;;;;;5034129;28;20061;-71
2022/07/05 14:08:12;;;;;;;4.13;1.15;;;21.60;98.20;;;;;;5034216;28;20044;-71
2022/07/05 14:10:38;;;;;;;2.58;0.88;;;22.20;98.10;;;;;;5033683;28;20091;-71
2022/07/05 14:13:03;;;;;;;2.92;1.10;;;21.60;98.20;;;;;;5034205;28;20045;-72
2022/07/05 14:15:29;;;;;;;4.03;0.90;;;20.70;97.80;;;;;;5051856;28;20033;-71
2022/07/05 14:17:54;;;;;;;2.40;0.90;;;20.60;98.10;;;;;;5033394;28;20037;-72
2022/07/05 14:20:20;;;;;;;3.47;1.02;;;20.70;98.00;;;;;;5033556;28;20036;-72